Архив погоды в Угино

Метеограмма Угино
Вторник, 16 Июля
Время местн. Темп Ветер Видим Явления Облачность нижн/средн/верх Атм. давл. Влжн Точка росы ВНГО R Сост. почвы Tg s
Напр Скр Прв ур.ст ур.м изм
09:00 +22.5° С-З 1 - 50 км - облачно 738 758 +0.3 68% +16.3° более 2.5 км 0 Влажная (без луж) - -
06:00 +17° штиль 0 - 50 км - ясно 738 758 +0.7 85% +14.4° более 2.5 км - - - -
03:00 +18.3° штиль 0 - 50 км - ясно 737 757 +0.6 85% +15.8° более 2.5 км - - - -
00:00 +20.2° штиль 0 - 50 км - переменная облачность 737 757 +1 79% +16.4° 1.5 км - - - -
Понедельник, 15 Июля
Время местн. Темп Ветер Видим Явления Облачность нижн/средн/верх Атм. давл. Влжн Точка росы ВНГО R Сост. почвы Tg s
Напр Скр Прв ур.ст ур.м изм
21:00 +23.5° штиль 0 - 50 км - облачно с прояснениями 736 755 +1.4 66% +16.7° 1.5 км 0 - - -
18:00 +30.8° В 1 - 50 км - облачно 734 753 -0.6 54% +20.3° 1.5 км - - - -
15:00 +28.5° С,С-В 2 - 50 км - облачно с прояснениями 735 754 -0.5 55% +18.6° 1 км - - - -
12:00 +27.8° З 1 - 50 км - облачно с прояснениями 736 755 -0.8 57% +18.6° 1.5 км - - - -
09:00 +20.2° З,Ю-З 1 - 50 км - ясно 736 756 +0.3 71% +14.7° более 2.5 км 0 Влажная (без луж) - -
06:00 +17° штиль 0 - 50 км - облачно 736 756 +0.5 76% +12.7° более 2.5 км - - - -
03:00 +14.7° штиль 0 - 50 км - облачно 736 756 +0.5 82% +11.7° более 2.5 км - - - -
00:00 +18.2° штиль 0 - 50 км - переменная облачность 735 755 +1.1 68% +12.3° более 2.5 км - - - -
Воскресенье, 14 Июля
Время местн. Темп Ветер Видим Явления Облачность нижн/средн/верх Атм. давл. Влжн Точка росы ВНГО R Сост. почвы Tg s
Напр Скр Прв ур.ст ур.м изм
21:00 +22° штиль 0 - 50 км - облачно 734 754 +1.1 63% +14.6° более 2.5 км 0 - - -
18:00 +26° Ю,Ю-З 1 - более 50 км - облачно с прояснениями 733 752 +0.5 48% +14.3° 1.5 км - - - -
15:00 +31.2° штиль 0 - 50 км - переменная облачность 732 751 -1.2 45% +18° 1.5 км - - - -
12:00 +28.3° Ю,Ю-З 2 - 50 км - переменная облачность 734 753 -0.9 50% +16.8° более 2.5 км - - - -
09:00 +20.6° штиль 0 - более 50 км - ясно 735 754 -0.7 65% +13.9° более 2.5 км 0 Влажная (без луж) +13° -
06:00 +16.6° штиль 0 - 50 км - ясно 735 755 +0.5 76% +12.3° более 2.5 км - - - -
00:00 +18.7° штиль 0 - более 50 км - ясно 734 754 +0.5 80% +15.1° более 2.5 км - - - -
Суббота, 13 Июля
Время местн. Темп Ветер Видим Явления Облачность нижн/средн/верх Атм. давл. Влжн Точка росы ВНГО R Сост. почвы Tg s
Напр Скр Прв ур.ст ур.м изм
21:00 +22.4° Ю 2 - 50 км - облачно 734 753 +0.8 72% +17° более 2.5 км 0 - - -
18:00 +30.4° С,С-В 3 - 50 км - облачно 733 752 -0.4 52% +19.4° 1.5 км - - - -
15:00 +31.2° В 3 - более 50 км - облачно 733 752 -1.8 48% +18.8° 1.5 км - - - -
12:00 +27.6° З,С-З 2 - 50 км - облачно 735 754 -1.5 57% +18.4° 1.5 км - - - -
09:00 +18.2° С,С-З 2 - 50 км - облачно 737 757 -0.4 75% +13.6° более 2.5 км 0 Влажная (без луж) - -
06:00 +17.9° штиль 0 - более 50 км - облачно 737 757 +0.3 77% +13.9° 1 км - - - -
03:00 +17.2° штиль 0 - 50 км - ясно 737 757 +0.4 69% +11.5° более 2.5 км - - - -